Time;durP1;ratioP1;P1;durP2;ratioP2;P2;SDS_P1;SDS_P2;PMS_P1;PMS_P2;Temp;Humidity;BMP_temperature;BMP_pressure;BME280_temperature;BME280_humidity;BME280_pressure;Samples;Min_cycle;Max_cycle;Signal;HPM_P1;HPM_P2
2022/09/26 00:02:43;;;;;;;8.93;6.65;;;;;;;;;;5057117;28;20390;-81
2022/09/26 00:05:32;;;;;;;10.60;7.30;;;;;;;;;;5063929;28;20045;-81
2022/09/26 00:08:18;;;;;;;10.23;7.00;;;;;;;;;;5056727;28;20041;-81
2022/09/26 00:11:06;;;;;;;10.32;7.22;;;;;;;;;;5057589;28;20049;-82
2022/09/26 00:13:53;;;;;;;10.50;7.95;;;;;;;;;;5056878;28;20045;-83
2022/09/26 00:16:38;;;;;;;8.55;7.15;;;;;;;;;;5057016;28;20041;-83
2022/09/26 00:19:25;;;;;;;8.60;7.03;;;;;;;;;;5056919;28;20037;-84
2022/09/26 00:22:12;;;;;;;10.52;7.40;;;;;;;;;;5063342;28;20478;-84
2022/09/26 00:24:57;;;;;;;10.35;7.47;;;;;;;;;;5056481;28;20045;-84
2022/09/26 00:27:42;;;;;;;10.45;6.85;;;;;;;;;;5055960;28;20037;-83
2022/09/26 00:30:28;;;;;;;9.13;7.40;;;;;;;;;;5056217;28;20045;-84
2022/09/26 00:33:14;;;;;;;9.55;7.28;;;;;;;;;;5062106;28;20045;-84
2022/09/26 00:36:00;;;;;;;7.75;6.95;;;;;;;;;;5055858;28;20048;-86
2022/09/26 00:38:47;;;;;;;9.55;7.40;;;;;;;;;;5056358;28;20041;-87
2022/09/26 00:41:33;;;;;;;10.45;7.80;;;;;;;;;;5062053;28;20041;-84
2022/09/26 00:44:34;;;;;;;11.23;6.90;;;;;;;;;;5056389;28;20048;-84
2022/09/26 00:47:46;;;;;;;8.77;6.43;;;;;;;;;;5057915;28;20045;-84
2022/09/26 00:50:39;;;;;;;12.63;7.65;;;;;;;;;;5073119;28;20053;-84
2022/09/26 00:53:32;;;;;;;10.68;7.32;;;;;;;;;;5071850;28;20041;-84
2022/09/26 00:56:22;;;;;;;8.52;6.57;;;;;;;;;;5056419;28;20044;-84
2022/09/26 00:59:14;;;;;;;10.43;6.93;;;;;;;;;;5056008;28;20041;-84
2022/09/26 01:02:00;;;;;;;9.88;6.80;;;;;;;;;;5061928;28;20044;-83
2022/09/26 01:04:47;;;;;;;11.38;7.60;;;;;;;;;;5055582;28;20037;-87
2022/09/26 01:07:34;;;;;;;10.73;8.07;;;;;;;;;;5055031;28;20040;-83
2022/09/26 01:10:19;;;;;;;10.77;7.88;;;;;;;;;;5056260;28;20049;-84
2022/09/26 01:13:07;;;;;;;10.98;7.70;;;;;;;;;;5061884;28;20049;-84
2022/09/26 01:15:52;;;;;;;13.25;7.88;;;;;;;;;;5061431;28;20036;-84
2022/09/26 01:18:38;;;;;;;11.15;7.55;;;;;;;;;;5061443;28;20494;-83
2022/09/26 01:22:01;;;;;;;9.68;7.75;;;;;;;;;;5055462;28;20045;-82
2022/09/26 01:25:11;;;;;;;11.25;7.15;;;;;;;;;;5055525;28;20049;-83
2022/09/26 01:28:34;;;;;;;11.13;7.88;;;;;;;;;;5055543;28;20045;-84
2022/09/26 01:35:40;;;;;;;12.88;8.18;;;;;;;;;;5060991;28;20045;-83
2022/09/26 01:38:36;;;;;;;11.75;8.50;;;;;;;;;;5056194;28;20044;-83
2022/09/26 01:41:33;;;;;;;12.73;8.18;;;;;;;;;;5054528;28;20057;-83
2022/09/26 01:44:39;;;;;;;10.93;7.72;;;;;;;;;;5060340;28;20049;-83
2022/09/26 01:47:46;;;;;;;14.38;7.45;;;;;;;;;;5056365;28;20045;-82
2022/09/26 01:50:52;;;;;;;11.82;8.35;;;;;;;;;;5060311;28;20045;-82
2022/09/26 01:54:01;;;;;;;10.02;7.70;;;;;;;;;;5059602;28;20045;-83
2022/09/26 01:56:49;;;;;;;15.10;9.00;;;;;;;;;;5057946;28;20033;-83
2022/09/26 01:59:39;;;;;;;13.20;8.70;;;;;;;;;;5058896;28;20041;-83
2022/09/26 02:02:30;;;;;;;14.35;8.98;;;;;;;;;;5059559;28;20053;-82
2022/09/26 02:05:15;;;;;;;10.05;8.18;;;;;;;;;;5060187;28;20045;-82
2022/09/26 02:08:17;;;;;;;9.80;8.00;;;;;;;;;;5059557;28;20045;-83
2022/09/26 02:11:15;;;;;;;12.48;8.35;;;;;;;;;;5066534;28;20041;-82
2022/09/26 02:14:14;;;;;;;11.05;9.45;;;;;;;;;;5052083;28;20056;-82
2022/09/26 02:17:14;;;;;;;13.25;9.35;;;;;;;;;;5065496;28;20486;-83
2022/09/26 02:20:10;;;;;;;10.38;8.65;;;;;;;;;;5059442;28;20483;-82
2022/09/26 02:22:58;;;;;;;10.23;7.70;;;;;;;;;;5059594;28;20045;-82
2022/09/26 02:25:43;;;;;;;11.85;7.57;;;;;;;;;;5064660;28;20052;-83
2022/09/26 02:28:30;;;;;;;8.18;6.82;;;;;;;;;;5064207;28;20045;-82
2022/09/26 02:31:21;;;;;;;12.63;8.57;;;;;;;;;;5059515;28;20049;-82
2022/09/26 02:34:07;;;;;;;8.63;7.50;;;;;;;;;;5059596;28;20498;-83
2022/09/26 02:36:54;;;;;;;8.20;7.03;;;;;;;;;;5060176;28;20041;-83
2022/09/26 02:39:45;;;;;;;8.25;6.22;;;;;;;;;;5059928;28;20049;-82
2022/09/26 02:42:44;;;;;;;8.45;6.60;;;;;;;;;;5060137;28;20041;-83
2022/09/26 02:45:54;;;;;;;8.90;6.50;;;;;;;;;;5054406;28;20037;-83
2022/09/26 02:48:48;;;;;;;7.47;6.32;;;;;;;;;;5060176;28;20044;-83
2022/09/26 02:51:53;;;;;;;10.13;6.78;;;;;;;;;;5059503;28;20045;-82
2022/09/26 02:55:03;;;;;;;8.95;7.03;;;;;;;;;;5060143;28;20048;-82
2022/09/26 02:58:02;;;;;;;10.00;7.40;;;;;;;;;;5062120;28;20041;-83
2022/09/26 03:01:26;;;;;;;13.40;8.05;;;;;;;;;;5059741;28;20049;-83
2022/09/26 03:04:17;;;;;;;10.52;8.60;;;;;;;;;;5059749;28;20045;-84
2022/09/26 03:07:08;;;;;;;13.15;9.38;;;;;;;;;;5059652;28;20413;-83
2022/09/26 03:09:56;;;;;;;16.30;9.85;;;;;;;;;;5063339;28;20049;-83
2022/09/26 03:12:43;;;;;;;14.65;9.25;;;;;;;;;;5063672;28;20037;-83
2022/09/26 03:15:31;;;;;;;12.25;8.70;;;;;;;;;;5063709;28;20470;-85
2022/09/26 03:18:23;;;;;;;11.20;9.18;;;;;;;;;;5056812;28;20045;-84
2022/09/26 03:21:08;;;;;;;11.45;9.63;;;;;;;;;;5059714;28;20045;-86
2022/09/26 03:23:56;;;;;;;11.05;8.77;;;;;;;;;;5080724;28;20045;-83
2022/09/26 03:26:42;;;;;;;11.43;8.98;;;;;;;;;;5063888;28;20037;-82
2022/09/26 03:29:28;;;;;;;13.75;8.85;;;;;;;;;;5063488;28;20397;-82
2022/09/26 03:32:13;;;;;;;11.85;9.13;;;;;;;;;;5063730;28;20053;-82
2022/09/26 03:34:59;;;;;;;11.32;8.45;;;;;;;;;;5063091;28;20033;-82
2022/09/26 03:37:46;;;;;;;11.45;7.97;;;;;;;;;;5063313;28;20041;-82
2022/09/26 03:40:33;;;;;;;11.50;8.80;;;;;;;;;;5063484;28;20045;-82
2022/09/26 03:43:39;;;;;;;10.93;8.10;;;;;;;;;;5056837;28;20502;-82
2022/09/26 03:46:27;;;;;;;9.88;7.95;;;;;;;;;;5057289;28;20045;-82
2022/09/26 03:49:13;;;;;;;12.35;8.90;;;;;;;;;;5057338;28;20053;-82
2022/09/26 03:51:58;;;;;;;11.75;9.27;;;;;;;;;;5063498;28;20044;-81
2022/09/26 03:54:44;;;;;;;9.77;8.50;;;;;;;;;;5062411;28;20045;-82
2022/09/26 03:57:29;;;;;;;9.15;8.05;;;;;;;;;;5063455;28;20045;-81
2022/09/26 04:00:21;;;;;;;13.80;8.65;;;;;;;;;;5062358;28;20044;-81
2022/09/26 04:03:09;;;;;;;10.35;7.30;;;;;;;;;;5063836;28;20040;-81
2022/09/26 04:05:57;;;;;;;10.07;8.20;;;;;;;;;;5061699;28;20049;-81
2022/09/26 04:08:42;;;;;;;12.63;8.05;;;;;;;;;;5062009;28;20045;-80
2022/09/26 04:11:29;;;;;;;8.88;6.53;;;;;;;;;;5062210;28;20045;-81
2022/09/26 04:14:16;;;;;;;10.73;8.77;;;;;;;;;;5063252;28;20052;-81
2022/09/26 04:17:03;;;;;;;11.68;8.32;;;;;;;;;;5062330;28;20041;-82
2022/09/26 04:19:55;;;;;;;12.55;8.70;;;;;;;;;;5061543;28;20052;-82
2022/09/26 04:22:41;;;;;;;12.40;9.00;;;;;;;;;;5062164;28;20045;-81
2022/09/26 04:25:28;;;;;;;11.10;8.43;;;;;;;;;;5062062;28;20041;-81
2022/09/26 04:28:13;;;;;;;9.68;8.48;;;;;;;;;;5061665;28;20041;-80
2022/09/26 04:31:00;;;;;;;10.88;7.97;;;;;;;;;;5062829;28;20049;-80
2022/09/26 04:33:46;;;;;;;10.85;8.32;;;;;;;;;;5056338;28;20045;-81
2022/09/26 04:36:32;;;;;;;9.88;7.60;;;;;;;;;;5048140;28;20037;-84
2022/09/26 04:39:18;;;;;;;11.68;6.53;;;;;;;;;;5057698;28;20041;-82
2022/09/26 04:42:04;;;;;;;7.72;6.20;;;;;;;;;;5062906;28;20041;-83
2022/09/26 04:44:50;;;;;;;6.43;5.40;;;;;;;;;;5056192;28;20048;-82
2022/09/26 04:47:35;;;;;;;9.00;7.15;;;;;;;;;;5054555;28;20037;-82
2022/09/26 04:50:55;;;;;;;10.43;7.28;;;;;;;;;;5080535;28;20036;-82
2022/09/26 04:53:41;;;;;;;8.68;7.10;;;;;;;;;;5055632;28;20049;-83
2022/09/26 04:56:38;;;;;;;9.00;7.03;;;;;;;;;;5061832;28;20045;-82
2022/09/26 04:59:26;;;;;;;10.35;8.10;;;;;;;;;;5061571;28;20045;-81
2022/09/26 05:02:19;;;;;;;12.50;8.55;;;;;;;;;;5061389;28;20402;-83
2022/09/26 05:05:05;;;;;;;10.18;7.43;;;;;;;;;;5056469;28;20049;-83
2022/09/26 05:07:51;;;;;;;10.38;8.10;;;;;;;;;;5061132;28;20045;-83
2022/09/26 05:10:37;;;;;;;12.48;9.52;;;;;;;;;;5056084;28;20397;-83
2022/09/26 05:13:24;;;;;;;12.23;9.38;;;;;;;;;;5055570;28;20394;-83
2022/09/26 05:16:13;;;;;;;12.30;8.43;;;;;;;;;;5061435;28;20474;-82
2022/09/26 05:18:59;;;;;;;10.63;7.47;;;;;;;;;;5060452;28;20044;-82
2022/09/26 05:21:45;;;;;;;8.85;6.72;;;;;;;;;;5060273;28;20045;-82
2022/09/26 05:27:36;;;;;;;8.75;7.07;;;;;;;;;;5061123;28;20041;-84
2022/09/26 05:30:21;;;;;;;8.73;7.25;;;;;;;;;;5059345;28;20048;-83
2022/09/26 05:33:07;;;;;;;12.85;8.88;;;;;;;;;;5060532;28;20045;-83
2022/09/26 05:35:52;;;;;;;12.70;9.32;;;;;;;;;;5061051;28;20041;-82
2022/09/26 05:38:38;;;;;;;10.88;8.52;;;;;;;;;;5061764;28;20049;-82
2022/09/26 05:41:27;;;;;;;13.88;10.10;;;;;;;;;;5061072;28;20049;-82
2022/09/26 05:44:13;;;;;;;11.95;9.57;;;;;;;;;;5061661;28;20041;-82
2022/09/26 05:46:59;;;;;;;12.05;9.15;;;;;;;;;;5058084;28;20041;-82
2022/09/26 05:49:45;;;;;;;13.40;10.25;;;;;;;;;;5061054;28;20037;-81
2022/09/26 05:52:33;;;;;;;13.23;9.30;;;;;;;;;;5056157;28;20041;-81
2022/09/26 05:55:19;;;;;;;15.65;8.50;;;;;;;;;;5068700;28;20044;-80
2022/09/26 05:58:31;;;;;;;15.85;6.65;;;;;;;;;;5054709;28;20044;-82
2022/09/26 06:01:36;;;;;;;9.40;6.63;;;;;;;;;;5055729;28;20037;-81
2022/09/26 06:04:34;;;;;;;11.13;7.20;;;;;;;;;;5060081;28;20049;-82
2022/09/26 06:07:44;;;;;;;7.72;5.47;;;;;;;;;;5059959;28;20044;-82
2022/09/26 06:10:40;;;;;;;7.40;5.63;;;;;;;;;;5060003;28;20052;-82
2022/09/26 06:13:25;;;;;;;7.25;5.75;;;;;;;;;;5054741;28;20390;-80
2022/09/26 06:16:19;;;;;;;8.27;4.63;;;;;;;;;;5059833;28;20044;-81
2022/09/26 06:19:05;;;;;;;6.78;4.95;;;;;;;;;;5054418;28;20045;-82
2022/09/26 06:21:51;;;;;;;8.80;6.57;;;;;;;;;;5060347;28;20138;-81
2022/09/26 06:24:37;;;;;;;7.60;6.13;;;;;;;;;;5059424;28;20390;-82
2022/09/26 06:27:24;;;;;;;8.55;6.97;;;;;;;;;;5060082;28;20041;-82
2022/09/26 06:30:10;;;;;;;10.60;6.95;;;;;;;;;;5059756;28;20410;-82
2022/09/26 06:32:56;;;;;;;8.05;6.40;;;;;;;;;;5059818;28;20045;-80
2022/09/26 06:36:06;;;;;;;9.00;6.80;;;;;;;;;;5053535;28;20036;-81
2022/09/26 06:38:55;;;;;;;9.32;6.90;;;;;;;;;;5054184;28;20486;-82
2022/09/26 06:41:41;;;;;;;7.93;6.88;;;;;;;;;;5059996;28;20414;-82
2022/09/26 06:44:46;;;;;;;9.10;7.00;;;;;;;;;;5054149;28;20048;-81
2022/09/26 06:47:45;;;;;;;11.07;5.70;;;;;;;;;;5055812;28;20041;-81
2022/09/26 06:50:54;;;;;;;11.02;6.55;;;;;;;;;;5054151;28;20049;-82
2022/09/26 06:53:41;;;;;;;6.03;4.45;;;;;;;;;;5059927;28;20041;-82
2022/09/26 06:56:28;;;;;;;7.05;5.80;;;;;;;;;;5060225;28;20474;-83
2022/09/26 06:59:15;;;;;;;8.52;6.78;;;;;;;;;;5059318;28;20053;-83
2022/09/26 07:02:08;;;;;;;9.00;6.45;;;;;;;;;;5059678;28;20052;-82
2022/09/26 07:05:12;;;;;;;7.30;6.05;;;;;;;;;;5059853;28;20045;-83
2022/09/26 07:08:06;;;;;;;8.18;4.68;;;;;;;;;;5046803;28;20402;-82
2022/09/26 07:10:51;;;;;;;7.80;6.32;;;;;;;;;;5059392;28;20482;-82
2022/09/26 07:13:45;;;;;;;8.00;6.27;;;;;;;;;;5059972;28;20402;-82
2022/09/26 07:16:31;;;;;;;8.95;6.28;;;;;;;;;;5059121;28;20058;-83
2022/09/26 07:19:31;;;;;;;8.27;6.40;;;;;;;;;;5059176;28;20049;-81
2022/09/26 07:22:33;;;;;;;9.18;6.07;;;;;;;;;;5059831;28;20057;-83
2022/09/26 07:25:19;;;;;;;6.28;4.55;;;;;;;;;;5053870;28;20042;-81
2022/09/26 07:28:08;;;;;;;6.00;3.92;;;;;;;;;;5052269;28;20045;-82
2022/09/26 07:31:04;;;;;;;6.28;4.18;;;;;;;;;;5059401;28;20394;-79
2022/09/26 07:34:16;;;;;;;5.53;4.15;;;;;;;;;;5053724;28;20045;-78
2022/09/26 07:37:01;;;;;;;8.68;5.15;;;;;;;;;;5059102;28;20194;-77
2022/09/26 07:39:47;;;;;;;7.65;4.88;;;;;;;;;;5059404;28;20049;-78
2022/09/26 07:42:32;;;;;;;7.80;4.80;;;;;;;;;;5059238;28;20041;-79
2022/09/26 07:50:09;;;;;;;6.35;5.03;;;;;;;;;;5059954;28;20045;-77
2022/09/26 07:51:53;;;;;;;8.07;4.97;;;;;;;;;;5053301;28;20479;-77
2022/09/26 07:54:41;;;;;;;9.63;5.28;;;;;;;;;;5060844;28;20065;-78
2022/09/26 07:57:48;;;;;;;7.88;4.90;;;;;;;;;;5057319;28;20036;-78
2022/09/26 08:00:52;;;;;;;4.97;4.30;;;;;;;;;;5062713;28;20432;-78
2022/09/26 08:03:58;;;;;;;7.70;4.93;;;;;;;;;;5064016;28;20045;-77
2022/09/26 08:06:48;;;;;;;6.25;4.70;;;;;;;;;;5063063;28;20045;-77
2022/09/26 08:09:35;;;;;;;4.30;3.47;;;;;;;;;;5056527;28;20037;-78
2022/09/26 08:12:39;;;;;;;6.65;4.47;;;;;;;;;;5057254;28;20049;-78
2022/09/26 08:15:52;;;;;;;9.38;5.32;;;;;;;;;;5063301;28;20394;-78
2022/09/26 08:18:43;;;;;;;8.48;5.30;;;;;;;;;;5062528;28;20041;-78
2022/09/26 08:21:29;;;;;;;7.13;5.10;;;;;;;;;;5062718;28;20033;-78
2022/09/26 08:24:16;;;;;;;10.40;5.60;;;;;;;;;;5062257;28;20052;-78
2022/09/26 08:27:32;;;;;;;7.97;4.38;;;;;;;;;;5069383;28;20387;-78
2022/09/26 08:30:18;;;;;;;9.73;4.50;;;;;;;;;;5062380;28;20040;-78
2022/09/26 08:33:11;;;;;;;11.73;5.68;;;;;;;;;;5062291;28;20049;-78
2022/09/26 08:36:17;;;;;;;10.27;5.97;;;;;;;;;;5062223;28;20041;-79
2022/09/26 08:39:20;;;;;;;9.38;5.40;;;;;;;;;;5056408;28;20045;-78
2022/09/26 08:42:56;;;;;;;7.90;6.13;;;;;;;;;;5055371;28;20044;-79
2022/09/26 08:50:21;;;;;;;9.57;5.97;;;;;;;;;;5062268;28;20398;-78
2022/09/26 08:53:28;;;;;;;7.90;5.32;;;;;;;;;;5062037;28;20049;-78
2022/09/26 08:56:51;;;;;;;8.23;5.60;;;;;;;;;;5061590;28;20053;-78
2022/09/26 08:59:42;;;;;;;11.13;6.68;;;;;;;;;;5054950;28;20386;-78
2022/09/26 09:02:47;;;;;;;8.68;5.35;;;;;;;;;;5062135;28;20382;-78
2022/09/26 09:05:40;;;;;;;10.25;6.47;;;;;;;;;;5061303;28;20045;-78
2022/09/26 09:08:48;;;;;;;9.15;5.50;;;;;;;;;;5061434;28;20049;-77
2022/09/26 09:12:12;;;;;;;7.35;5.50;;;;;;;;;;5055368;28;20036;-76
2022/09/26 09:15:13;;;;;;;12.90;6.38;;;;;;;;;;5061476;28;20041;-76
2022/09/26 09:18:29;;;;;;;12.13;7.85;;;;;;;;;;5054310;28;20510;-77
2022/09/26 09:21:56;;;;;;;10.10;6.65;;;;;;;;;;5055835;28;20470;-76
2022/09/26 09:25:02;;;;;;;10.43;6.47;;;;;;;;;;5060632;28;20482;-76
2022/09/26 09:28:14;;;;;;;12.00;6.85;;;;;;;;;;5060768;28;20505;-75
2022/09/26 09:31:04;;;;;;;8.57;5.85;;;;;;;;;;5060596;28;20398;-76
2022/09/26 09:34:41;;;;;;;8.70;5.65;;;;;;;;;;5060404;28;20483;-75
2022/09/26 09:37:48;;;;;;;6.88;4.20;;;;;;;;;;5054747;28;20045;-75
2022/09/26 09:41:33;;;;;;;9.68;5.15;;;;;;;;;;5060932;28;20049;-75
2022/09/26 09:44:43;;;;;;;15.50;10.30;;;;;;;;;;5052884;28;20048;-76
2022/09/26 09:47:29;;;;;;;10.07;6.40;;;;;;;;;;5054357;28;20045;-76
2022/09/26 09:50:41;;;;;;;10.40;5.85;;;;;;;;;;5061686;28;20045;-76
2022/09/26 09:53:46;;;;;;;6.22;4.93;;;;;;;;;;5060190;28;20052;-77
2022/09/26 09:56:35;;;;;;;9.27;6.55;;;;;;;;;;5060788;28;20057;-77
2022/09/26 09:59:58;;;;;;;9.00;5.20;;;;;;;;;;5060819;28;20037;-77
2022/09/26 10:03:10;;;;;;;12.18;5.90;;;;;;;;;;5060515;28;20040;-79
2022/09/26 10:05:59;;;;;;;9.32;6.00;;;;;;;;;;5060407;28;20041;-76
2022/09/26 10:08:49;;;;;;;16.38;7.57;;;;;;;;;;5059984;28;20041;-76
2022/09/26 10:11:58;;;;;;;10.18;6.28;;;;;;;;;;5055333;28;20052;-76
2022/09/26 10:15:18;;;;;;;11.38;7.68;;;;;;;;;;5054271;28;20045;-76
2022/09/26 10:18:22;;;;;;;10.18;6.13;;;;;;;;;;5053946;28;20053;-78
2022/09/26 10:21:17;;;;;;;12.52;7.25;;;;;;;;;;5060369;28;20060;-76
2022/09/26 10:24:04;;;;;;;11.32;7.78;;;;;;;;;;5059823;28;20045;-75
2022/09/26 10:27:21;;;;;;;14.02;7.45;;;;;;;;;;5060244;28;20398;-76
2022/09/26 10:30:28;;;;;;;8.20;5.85;;;;;;;;;;5059951;28;20045;-78
2022/09/26 10:33:28;;;;;;;9.63;5.47;;;;;;;;;;5060431;28;20078;-78
2022/09/26 10:36:39;;;;;;;8.80;5.93;;;;;;;;;;5059715;28;20045;-78
2022/09/26 10:42:37;;;;;;;14.05;6.82;;;;;;;;;;5059426;28;20052;-78
2022/09/26 10:45:28;;;;;;;11.70;6.88;;;;;;;;;;5059561;28;20069;-79
2022/09/26 10:49:01;;;;;;;13.18;8.05;;;;;;;;;;5059992;28;20041;-79
2022/09/26 10:52:13;;;;;;;12.90;7.57;;;;;;;;;;5054154;28;20041;-79
2022/09/26 10:55:03;;;;;;;11.63;5.38;;;;;;;;;;5060793;28;20041;-77
2022/09/26 10:58:10;;;;;;;5.85;4.38;;;;;;;;;;5059446;28;20045;-78
2022/09/26 11:00:59;;;;;;;6.38;4.53;;;;;;;;;;5052045;28;20041;-77
2022/09/26 11:03:45;;;;;;;7.70;5.20;;;;;;;;;;5059378;28;20049;-77
2022/09/26 11:06:43;;;;;;;11.85;5.80;;;;;;;;;;5060353;28;20041;-76
2022/09/26 11:10:00;;;;;;;8.18;6.28;;;;;;;;;;5060356;28;20045;-77
2022/09/26 11:13:19;;;;;;;8.70;5.13;;;;;;;;;;5049328;28;20045;-79
2022/09/26 11:16:12;;;;;;;10.57;6.10;;;;;;;;;;5059635;28;20049;-79
2022/09/26 11:19:21;;;;;;;9.07;4.95;;;;;;;;;;5058750;28;20045;-76
2022/09/26 11:22:37;;;;;;;7.93;5.45;;;;;;;;;;5059601;28;20053;-77
2022/09/26 11:25:26;;;;;;;;;;;;;;;;;;5053594;28;20049;-77
2022/09/26 11:28:18;;;;;;;8.18;5.70;;;;;;;;;;5059580;28;19912;-76
2022/09/26 11:31:26;;;;;;;6.63;5.15;;;;;;;;;;5064211;28;20041;-76
2022/09/26 11:34:34;;;;;;;9.60;5.40;;;;;;;;;;5064430;28;20041;-78
2022/09/26 11:38:04;;;;;;;8.10;5.78;;;;;;;;;;5062723;28;20052;-77
2022/09/26 11:41:35;;;;;;;9.35;5.85;;;;;;;;;;5063604;28;20049;-77
2022/09/26 11:44:55;;;;;;;10.27;6.45;;;;;;;;;;5063812;28;20041;-75
2022/09/26 11:48:11;;;;;;;17.08;8.77;;;;;;;;;;5059142;28;20053;-79
2022/09/26 11:51:26;;;;;;;10.88;7.00;;;;;;;;;;5056817;28;20041;-77
2022/09/26 11:54:45;;;;;;;13.38;7.35;;;;;;;;;;5062341;28;20490;-78
2022/09/26 11:57:44;;;;;;;9.40;6.00;;;;;;;;;;5064205;28;20057;-77
2022/09/26 12:00:47;;;;;;;9.40;4.95;;;;;;;;;;5057659;28;20041;-77
2022/09/26 12:03:50;;;;;;;10.68;6.07;;;;;;;;;;5057182;28;20053;-77
2022/09/26 12:06:54;;;;;;;10.23;5.35;;;;;;;;;;5063937;28;20049;-77
2022/09/26 12:09:53;;;;;;;10.05;5.97;;;;;;;;;;5064647;28;20045;-82
2022/09/26 12:13:13;;;;;;;8.60;5.68;;;;;;;;;;5060345;28;20052;-80
2022/09/26 12:16:22;;;;;;;9.48;6.75;;;;;;;;;;5056377;28;20045;-80
2022/09/26 12:19:13;;;;;;;10.82;6.20;;;;;;;;;;5063075;28;20044;-76
2022/09/26 12:22:28;;;;;;;8.75;5.97;;;;;;;;;;5055902;28;20057;-74
2022/09/26 12:25:35;;;;;;;9.33;6.13;;;;;;;;;;5056259;28;20506;-77
2022/09/26 12:28:24;;;;;;;9.75;6.32;;;;;;;;;;5056185;28;20049;-76
2022/09/26 12:31:49;;;;;;;10.35;6.82;;;;;;;;;;5056052;28;20045;-76
2022/09/26 12:34:54;;;;;;;;;;;;;;;;;;5056633;28;20482;-76
2022/09/26 12:37:51;;;;;;;9.50;7.55;;;;;;;;;;5062421;28;20262;-76
2022/09/26 12:40:39;;;;;;;14.18;9.48;;;;;;;;;;5055673;28;20049;-76
2022/09/26 12:43:34;;;;;;;14.00;9.18;;;;;;;;;;5061895;28;20049;-76
2022/09/26 12:46:20;;;;;;;16.40;8.00;;;;;;;;;;5061363;28;20041;-75
2022/09/26 12:49:09;;;;;;;11.95;8.48;;;;;;;;;;5062008;28;20049;-77
2022/09/26 12:52:22;;;;;;;12.50;9.20;;;;;;;;;;5055383;28;20390;-79
2022/09/26 12:55:29;;;;;;;11.48;8.35;;;;;;;;;;5055893;28;20386;-76
2022/09/26 12:58:47;;;;;;;11.57;7.63;;;;;;;;;;5062158;28;20049;-77
2022/09/26 13:02:21;;;;;;;9.05;6.85;;;;;;;;;;5055780;28;20049;-77
2022/09/26 13:05:27;;;;;;;9.13;6.82;;;;;;;;;;5055090;28;20397;-77
2022/09/26 13:08:23;;;;;;;;;;;;;;;;;;5062665;28;20045;-77
2022/09/26 13:11:39;;;;;;;11.50;8.35;;;;;;;;;;5054787;28;19917;-75
2022/09/26 13:14:38;;;;;;;14.52;9.38;;;;;;;;;;5054506;28;20041;-76
2022/09/26 13:17:34;;;;;;;14.60;8.30;;;;;;;;;;5054763;28;20037;-76
2022/09/26 13:20:48;;;;;;;13.95;9.80;;;;;;;;;;5055040;28;20049;-76
2022/09/26 13:23:54;;;;;;;14.60;9.23;;;;;;;;;;5054735;28;20052;-77
2022/09/26 13:26:45;;;;;;;11.75;8.63;;;;;;;;;;5061617;28;20056;-77
2022/09/26 13:29:36;;;;;;;13.85;9.60;;;;;;;;;;5054863;28;20045;-77
2022/09/26 13:32:59;;;;;;;13.85;9.70;;;;;;;;;;5060501;28;20483;-76
2022/09/26 13:35:49;;;;;;;26.13;17.27;;;;;;;;;;5053501;28;20474;-76
2022/09/26 13:38:46;;;;;;;22.70;15.90;;;;;;;;;;5054788;28;20390;-76
2022/09/26 13:41:53;;;;;;;25.98;17.70;;;;;;;;;;5061389;28;20040;-76
2022/09/26 13:45:07;;;;;;;21.38;14.63;;;;;;;;;;5060796;28;20486;-76
2022/09/26 13:48:06;;;;;;;13.43;10.30;;;;;;;;;;5054145;28;20406;-75
2022/09/26 13:50:59;;;;;;;20.08;13.73;;;;;;;;;;5060599;28;20037;-77
2022/09/26 13:53:58;;;;;;;19.20;13.32;;;;;;;;;;5054408;28;20471;-77
2022/09/26 13:56:48;;;;;;;16.23;12.43;;;;;;;;;;5054659;28;20048;-76
2022/09/26 13:59:50;;;;;;;15.02;11.07;;;;;;;;;;5054220;28;20041;-76
2022/09/26 14:02:35;;;;;;;18.08;11.82;;;;;;;;;;5053825;28;20045;-76
2022/09/26 14:05:49;;;;;;;19.05;14.63;;;;;;;;;;5060894;28;20044;-78
2022/09/26 14:11:48;;;;;;;37.20;28.00;;;;;;;;;;5054080;28;20045;-76
2022/09/26 14:14:44;;;;;;;21.95;15.90;;;;;;;;;;5060664;28;20049;-76
2022/09/26 14:17:43;;;;;;;19.77;12.82;;;;;;;;;;5053905;28;20037;-77
2022/09/26 14:20:32;;;;;;;19.10;13.07;;;;;;;;;;5060680;28;20045;-76
2022/09/26 14:24:13;;;;;;;16.02;13.02;;;;;;;;;;5053942;28;20041;-76
2022/09/26 14:27:03;;;;;;;12.27;9.95;;;;;;;;;;5051609;28;20053;-77
2022/09/26 14:29:50;;;;;;;19.63;10.88;;;;;;;;;;5054089;28;20041;-78
2022/09/26 14:32:46;;;;;;;23.30;13.18;;;;;;;;;;5060819;28;20056;-76
2022/09/26 14:35:34;;;;;;;18.73;12.65;;;;;;;;;;5053552;28;20482;-77
2022/09/26 14:38:21;;;;;;;20.30;14.02;;;;;;;;;;5060322;28;20036;-76
2022/09/26 14:41:18;;;;;;;20.70;14.98;;;;;;;;;;5060469;28;20049;-76
2022/09/26 14:44:16;;;;;;;22.42;15.80;;;;;;;;;;5061058;28;20045;-76
2022/09/26 14:47:07;;;;;;;26.02;17.08;;;;;;;;;;5053274;28;20048;-77
2022/09/26 14:50:05;;;;;;;20.77;15.63;;;;;;;;;;5059845;28;20049;-77
2022/09/26 14:53:01;;;;;;;29.08;18.85;;;;;;;;;;5053274;28;20041;-77
2022/09/26 14:56:00;;;;;;;25.88;17.10;;;;;;;;;;5060285;28;20418;-76
2022/09/26 14:58:50;;;;;;;25.40;16.00;;;;;;;;;;5059977;28;20037;-77
2022/09/26 15:01:37;;;;;;;21.75;15.68;;;;;;;;;;5053059;28;20048;-77
2022/09/26 15:04:31;;;;;;;22.40;16.35;;;;;;;;;;5062918;28;20462;-77
2022/09/26 15:07:20;;;;;;;20.45;16.00;;;;;;;;;;5057621;28;20045;-77
2022/09/26 15:10:40;;;;;;;23.17;16.73;;;;;;;;;;5057335;28;20041;-77
2022/09/26 15:13:35;;;;;;;25.80;18.20;;;;;;;;;;5064204;28;20048;-77
2022/09/26 15:16:36;;;;;;;22.92;17.45;;;;;;;;;;5057586;28;20045;-76
2022/09/26 15:19:48;;;;;;;27.00;18.55;;;;;;;;;;5064036;28;20486;-77
2022/09/26 15:22:34;;;;;;;26.17;17.73;;;;;;;;;;5057186;28;20053;-77
2022/09/26 15:25:21;;;;;;;22.58;17.20;;;;;;;;;;5057476;28;20053;-76
2022/09/26 15:28:08;;;;;;;28.25;18.02;;;;;;;;;;5057336;28;20045;-77
2022/09/26 15:31:27;;;;;;;24.30;17.48;;;;;;;;;;5056905;28;20437;-77
2022/09/26 15:34:16;;;;;;;24.38;18.33;;;;;;;;;;5064132;28;20053;-76
2022/09/26 15:37:13;;;;;;;24.05;17.13;;;;;;;;;;5056879;28;20402;-76
2022/09/26 15:40:29;;;;;;;50.97;27.23;;;;;;;;;;5057192;28;20057;-76
2022/09/26 15:43:21;;;;;;;28.13;19.75;;;;;;;;;;5056360;28;20049;-78
2022/09/26 15:46:22;;;;;;;28.35;21.15;;;;;;;;;;5056127;28;20041;-77
2022/09/26 15:49:13;;;;;;;30.20;21.92;;;;;;;;;;5053189;28;20041;-76
2022/09/26 15:52:00;;;;;;;42.08;28.30;;;;;;;;;;5053232;28;20053;-75
2022/09/26 15:54:46;;;;;;;39.03;26.05;;;;;;;;;;5056290;28;20360;-76
2022/09/26 15:57:32;;;;;;;36.00;25.77;;;;;;;;;;5062181;28;20382;-77
2022/09/26 16:00:18;;;;;;;44.33;27.27;;;;;;;;;;5054976;28;20041;-77
2022/09/26 16:03:25;;;;;;;49.70;30.92;;;;;;;;;;5056093;28;20487;-78
2022/09/26 16:06:36;;;;;;;49.25;32.45;;;;;;;;;;5063299;28;20116;-79
2022/09/26 16:09:31;;;;;;;39.75;26.35;;;;;;;;;;5056189;28;20422;-78
2022/09/26 16:12:23;;;;;;;33.30;23.00;;;;;;;;;;5055494;28;20057;-77
2022/09/26 16:15:23;;;;;;;34.47;20.15;;;;;;;;;;5062331;28;20049;-81
2022/09/26 16:18:26;;;;;;;41.78;27.92;;;;;;;;;;5063018;28;20041;-79
2022/09/26 16:21:24;;;;;;;39.55;28.50;;;;;;;;;;5054995;28;20056;-79
2022/09/26 16:24:33;;;;;;;42.60;30.98;;;;;;;;;;5056166;28;20375;-78
2022/09/26 16:27:32;;;;;;;43.83;28.77;;;;;;;;;;5056405;28;20514;-78
2022/09/26 16:30:24;;;;;;;38.67;27.42;;;;;;;;;;5062800;28;20041;-78
2022/09/26 16:33:33;;;;;;;34.05;24.20;;;;;;;;;;5058163;28;20053;-77
2022/09/26 16:36:27;;;;;;;55.95;32.13;;;;;;;;;;5067924;28;20056;-79
2022/09/26 16:39:27;;;;;;;41.72;27.52;;;;;;;;;;5069039;28;20049;-77
2022/09/26 16:42:16;;;;;;;33.90;24.50;;;;;;;;;;5069594;28;20478;-79
2022/09/26 16:45:04;;;;;;;34.30;21.95;;;;;;;;;;5068090;28;20482;-78
2022/09/26 16:47:50;;;;;;;30.63;21.83;;;;;;;;;;5060869;28;20425;-78
2022/09/26 16:50:36;;;;;;;38.35;23.23;;;;;;;;;;5066177;28;20048;-79
2022/09/26 16:53:21;;;;;;;27.17;20.60;;;;;;;;;;5058236;28;20486;-79
2022/09/26 16:56:13;;;;;;;29.52;20.90;;;;;;;;;;5064327;28;20039;-77
2022/09/26 16:59:01;;;;;;;24.65;16.73;;;;;;;;;;5061750;28;20049;-78
2022/09/26 17:01:54;;;;;;;23.23;18.08;;;;;;;;;;5061810;28;20486;-79
2022/09/26 17:04:41;;;;;;;21.98;16.48;;;;;;;;;;5055562;28;20037;-77
2022/09/26 17:07:32;;;;;;;21.63;15.73;;;;;;;;;;5054850;28;20053;-78
2022/09/26 17:10:19;;;;;;;31.40;17.05;;;;;;;;;;5061562;28;20044;-78
2022/09/26 17:13:09;;;;;;;21.85;14.82;;;;;;;;;;5062109;28;20049;-77
2022/09/26 17:15:59;;;;;;;47.00;25.38;;;;;;;;;;5061497;28;20041;-78
2022/09/26 17:18:45;;;;;;;18.35;12.25;;;;;;;;;;5061863;28;20048;-78
2022/09/26 17:21:31;;;;;;;14.88;11.38;;;;;;;;;;5055043;28;20049;-79
2022/09/26 17:24:25;;;;;;;18.48;12.27;;;;;;;;;;5061608;28;20390;-78
2022/09/26 17:27:29;;;;;;;22.35;11.70;;;;;;;;;;5061155;28;20048;-78
2022/09/26 17:30:18;;;;;;;27.60;13.65;;;;;;;;;;5061706;28;20052;-77
2022/09/26 17:33:04;;;;;;;27.58;14.13;;;;;;;;;;5061767;28;20037;-76
2022/09/26 17:35:51;;;;;;;16.60;10.68;;;;;;;;;;5054813;28;20045;-78
2022/09/26 17:38:39;;;;;;;20.10;12.60;;;;;;;;;;5061354;28;20037;-75
2022/09/26 17:41:28;;;;;;;14.57;10.55;;;;;;;;;;5061309;28;20060;-78
2022/09/26 17:44:14;;;;;;;14.45;9.60;;;;;;;;;;5054483;28;20049;-77
2022/09/26 17:47:01;;;;;;;14.25;9.48;;;;;;;;;;5058315;28;20036;-76
2022/09/26 17:49:53;;;;;;;10.73;8.80;;;;;;;;;;5054285;28;20045;-79